Forside
METAR-TAF:

METAR-TAF

Lufthavne :

Burnett County Airport

Siren, Wisconsin, USA

Breddekreds: 45-49-22N, længdekreds: 092-22-21W, højde: 301 m

Aktuelle vejr

Denne rapport blev lavet for 24 minutter siden, kl. 14:35 UTC
Vind stille
Temperatur -6°C
Fugtighed 100%
Tryk 1006 hPa
Sigt: 16.1 km
Spredte skyer i en højde af 2000 ft
Brudte skyer i en højde af 5500 ft
Overskyet i en højde af 7500 ft
let sne

METAR: KRZN 181435Z AUTO 00000KT 10SM -SN SCT020 BKN055 OVC075 M06/M06 A2970 RMK AO2 T10561060

Tid: 08:59 (14:59 UTC)


TAF: fraværende

Vejrobservationer og prognoser fra mere end 4000 lufthavne (METAR og TAF).

De gule og røde prikker repræsenterer de meteorologiske stationer.

Flyt musen over at se navnet på stationen.

Så klik over at se vejr observationer og prognoser.

At skifte det kort: Klik på de grønne knapper med et sort kors for at zoome ind; på den grønne knap med en bindestreg for at zoome ud; eller på de grønne pile for tilstødende kort.


METAR-TAF: